createdAt,value
2019-03-09T00:00:51.016Z,98.21
2019-03-09T00:01:51.031Z,98.02
2019-03-09T00:02:51.042Z,98.49
2019-03-09T00:03:51.337Z,99.16
2019-03-09T00:04:51.079Z,98.87
2019-03-09T00:05:51.092Z,99.16
2019-03-09T00:06:51.104Z,99.54
2019-03-09T00:07:51.119Z,99.16
2019-03-09T00:09:51.152Z,99.99
2019-03-09T00:10:51.166Z,99.99
2019-03-09T00:11:51.345Z,99.99
2019-03-09T00:12:51.198Z,99.99
2019-03-09T00:13:51.218Z,99.73
2019-03-09T00:14:51.256Z,99.99
2019-03-09T00:15:51.240Z,99.99
2019-03-09T00:16:51.260Z,99.99
2019-03-09T00:17:51.275Z,99.99
2019-03-09T00:18:51.292Z,99.99
2019-03-09T00:19:51.304Z,99.99
2019-03-09T00:20:51.326Z,99.99
2019-03-09T00:23:51.369Z,99.99
2019-03-09T00:24:51.382Z,99.99
2019-03-09T00:25:51.396Z,99.99
2019-03-09T00:26:51.414Z,99.54
2019-03-09T00:27:51.428Z,99.99
2019-03-09T00:29:06.101Z,99.99
2019-03-09T00:29:51.456Z,99.73
2019-03-09T00:30:51.574Z,99.35
2019-03-09T00:31:51.489Z,99.35
2019-03-09T00:32:51.502Z,99.99
2019-03-09T00:33:51.518Z,99.91
2019-03-09T00:34:51.531Z,99.99
2019-03-09T00:35:51.569Z,99.99
2019-03-09T00:36:51.569Z,99.99
2019-03-09T00:37:51.763Z,99.99
2019-03-09T00:38:51.598Z,99.99
2019-03-09T00:39:51.612Z,99.73
2019-03-09T00:40:51.625Z,99.54
2019-03-09T00:41:51.645Z,99.63
2019-03-09T00:42:51.654Z,99.63
2019-03-09T00:43:51.671Z,99.63
2019-03-09T00:45:06.347Z,99.99
2019-03-09T00:45:51.961Z,99.99
2019-03-09T00:46:51.735Z,99.99
2019-03-09T00:47:51.731Z,99.91
2019-03-09T00:48:51.795Z,99.44
2019-03-09T00:49:51.806Z,99.91
2019-03-09T00:50:51.800Z,99.63
2019-03-09T00:51:51.795Z,99.73
2019-03-09T00:53:51.824Z,99.73
2019-03-09T00:54:51.841Z,99.54
2019-03-09T00:55:51.857Z,99.44
2019-03-09T00:56:51.866Z,99.54
2019-03-09T00:57:51.894Z,99.16
2019-03-09T00:58:51.899Z,99.16
2019-03-09T00:59:51.915Z,99.63
2019-03-09T01:01:06.590Z,99.44
2019-03-09T01:01:52.003Z,99.73
2019-03-09T01:02:53.611Z,99.26
2019-03-09T01:03:51.974Z,99.73
2019-03-09T01:04:51.990Z,99.26
2019-03-09T01:05:52.004Z,99.35
2019-03-09T01:06:52.040Z,99.54
2019-03-09T01:07:52.036Z,99.26
2019-03-09T01:08:52.050Z,99.63
2019-03-09T01:09:52.091Z,98.83
2019-03-09T01:10:52.094Z,99.11
2019-03-09T01:11:52.097Z,98.68
2019-03-09T01:12:52.114Z,98.92
2019-03-09T01:14:52.150Z,98.83
2019-03-09T01:15:52.207Z,98.54
2019-03-09T01:17:06.836Z,99.21
2019-03-09T01:17:52.196Z,99.11
2019-03-09T01:18:52.206Z,99.3
2019-03-09T01:19:52.225Z,99.11
2019-03-09T01:20:52.233Z,99.49
2019-03-09T01:21:52.250Z,99.21
2019-03-09T01:22:52.265Z,99.4
2019-03-09T01:23:52.282Z,99.49
2019-03-09T01:24:52.303Z,99.77
2019-03-09T01:25:52.410Z,99.68
2019-03-09T01:26:52.324Z,99.3
2019-03-09T01:27:52.343Z,99.58
2019-03-09T01:28:52.364Z,99.99
2019-03-09T01:29:52.373Z,99.97
2019-03-09T01:30:52.393Z,99.99
2019-03-09T01:32:07.067Z,99.99
2019-03-09T01:32:52.421Z,99.99
2019-03-09T01:33:52.434Z,99.99
2019-03-09T01:34:52.451Z,99.99
2019-03-09T01:35:52.466Z,99.99
2019-03-09T01:36:52.481Z,99.99
2019-03-09T01:37:52.497Z,99.99
2019-03-09T01:38:52.511Z,99.99
2019-03-09T01:39:52.527Z,99.99
2019-03-09T01:40:52.540Z,99.99
2019-03-09T01:41:52.562Z,99.99
2019-03-09T01:42:52.606Z,99.99
2019-03-09T01:43:52.588Z,99.99
2019-03-09T01:44:52.606Z,99.99
2019-03-09T01:45:52.622Z,99.99
2019-03-09T01:46:52.654Z,99.99
2019-03-09T01:47:52.656Z,99.99
2019-03-09T01:48:52.681Z,99.99
2019-03-09T01:49:52.680Z,99.99
2019-03-09T01:50:52.698Z,99.99
2019-03-09T01:51:52.713Z,99.99
2019-03-09T01:52:52.732Z,99.99
2019-03-09T01:53:52.742Z,99.99
2019-03-09T01:54:52.801Z,99.99
2019-03-09T01:55:52.778Z,99.99
2019-03-09T01:56:52.790Z,99.99
2019-03-09T01:57:52.803Z,99.99
2019-03-09T01:58:52.828Z,99.99
2019-03-09T01:59:52.837Z,99.99
2019-03-09T02:00:52.850Z,99.99
2019-03-09T02:01:52.866Z,99.99
2019-03-09T02:02:52.890Z,99.99
2019-03-09T02:04:07.561Z,99.99
2019-03-09T02:04:52.911Z,99.99
2019-03-09T02:05:52.925Z,99.99
2019-03-09T02:06:52.941Z,99.99
2019-03-09T02:07:52.957Z,99.99
2019-03-09T02:08:52.972Z,99.99
2019-03-09T02:09:52.991Z,99.99
2019-03-09T02:10:53.003Z,99.99
2019-03-09T02:11:53.019Z,99.99
2019-03-09T02:12:53.035Z,99.99
2019-03-09T02:13:53.047Z,99.99
2019-03-09T02:14:53.064Z,99.99
2019-03-09T02:15:53.083Z,99.99
2019-03-09T02:16:53.096Z,99.99
2019-03-09T02:18:53.129Z,99.99
2019-03-09T02:20:07.807Z,99.99
2019-03-09T02:20:53.157Z,99.99
2019-03-09T02:21:53.272Z,99.99
2019-03-09T02:22:53.190Z,99.99
2019-03-09T02:23:53.203Z,99.99
2019-03-09T02:24:53.219Z,99.99
2019-03-09T02:25:53.233Z,99.99
2019-03-09T02:26:53.248Z,99.99
2019-03-09T02:27:53.265Z,99.99
2019-03-09T02:28:53.278Z,99.99
2019-03-09T02:29:53.295Z,99.99
2019-03-09T02:30:53.314Z,99.99
2019-03-09T02:31:53.330Z,99.99
2019-03-09T02:32:53.348Z,99.99
2019-03-09T02:33:53.355Z,99.99
2019-03-09T02:34:53.374Z,99.99
2019-03-09T02:36:08.063Z,99.99
2019-03-09T02:36:53.406Z,99.99
2019-03-09T02:37:53.434Z,99.99
2019-03-09T02:38:53.444Z,99.99
2019-03-09T02:39:53.461Z,99.99
2019-03-09T02:40:53.464Z,99.99
2019-03-09T02:41:53.492Z,99.99
2019-03-09T02:42:53.505Z,99.99
2019-03-09T02:43:53.526Z,99.99
2019-03-09T02:44:53.527Z,99.99
2019-03-09T02:45:53.546Z,99.99
2019-03-09T02:46:53.566Z,99.99
2019-03-09T02:47:53.585Z,99.99
2019-03-09T02:48:53.589Z,99.99
2019-03-09T02:49:53.605Z,99.99
2019-03-09T02:52:08.328Z,99.99
2019-03-09T02:52:53.660Z,99.99
2019-03-09T02:53:53.664Z,99.99
2019-03-09T02:54:53.782Z,99.99
2019-03-09T02:55:53.708Z,99.99
2019-03-09T02:56:53.710Z,99.99
2019-03-09T02:57:53.726Z,99.99
2019-03-09T02:58:53.769Z,99.99
2019-03-09T02:59:53.771Z,99.99
2019-03-09T03:00:53.772Z,99.99
2019-03-09T03:01:53.803Z,99.99
2019-03-09T03:02:53.847Z,99.99
2019-03-09T03:03:53.587Z,99.99
2019-03-09T03:04:53.859Z,99.99
2019-03-09T03:05:53.850Z,99.99
2019-03-09T03:07:08.531Z,99.99
2019-03-09T03:07:53.893Z,99.99
2019-03-09T03:08:53.897Z,99.99
2019-03-09T03:09:53.914Z,99.99
2019-03-09T03:10:53.934Z,99.99
2019-03-09T03:11:53.958Z,99.99
2019-03-09T03:12:53.957Z,99.99
2019-03-09T03:13:53.974Z,99.99
2019-03-09T03:14:53.989Z,99.99
2019-03-09T03:16:54.035Z,99.99
2019-03-09T03:17:54.048Z,99.99
2019-03-09T03:18:54.074Z,99.99
2019-03-09T03:19:54.072Z,99.99
2019-03-09T03:20:54.081Z,99.99
2019-03-09T03:21:54.096Z,99.99
2019-03-09T03:22:54.122Z,99.99
2019-03-09T03:23:54.131Z,99.99
2019-03-09T03:24:54.145Z,99.99
2019-03-09T03:25:54.164Z,99.99
2019-03-09T03:26:54.176Z,99.99
2019-03-09T03:27:54.192Z,99.99
2019-03-09T03:28:54.210Z,99.99
2019-03-09T03:29:54.235Z,99.99
2019-03-09T03:30:54.270Z,99.99
2019-03-09T03:31:54.318Z,99.99
2019-03-09T03:32:54.306Z,99.99
2019-03-09T03:33:54.291Z,99.99
2019-03-09T03:34:54.311Z,99.99
2019-03-09T03:35:54.360Z,99.99
2019-03-09T03:36:54.343Z,99.99
2019-03-09T03:37:54.403Z,99.99
2019-03-09T03:39:09.024Z,99.99
2019-03-09T03:39:54.398Z,99.99
2019-03-09T03:40:54.401Z,99.99
2019-03-09T03:41:54.416Z,99.99
2019-03-09T03:42:54.422Z,99.99
2019-03-09T03:43:54.451Z,99.99
2019-03-09T03:44:54.215Z,99.99
2019-03-09T03:45:54.485Z,99.99
2019-03-09T03:46:54.494Z,99.99
2019-03-09T03:47:54.512Z,99.99
2019-03-09T03:48:54.519Z,99.99
2019-03-09T03:49:54.537Z,99.99
2019-03-09T03:50:54.563Z,99.99
2019-03-09T03:51:54.568Z,99.99
2019-03-09T03:52:54.584Z,99.99
2019-03-09T03:53:54.597Z,99.99
2019-03-09T03:55:09.276Z,99.99
2019-03-09T03:55:54.635Z,99.99
2019-03-09T03:56:54.658Z,99.99
2019-03-09T03:57:54.671Z,99.99
2019-03-09T03:58:54.685Z,99.99
2019-03-09T03:59:54.691Z,99.99
2019-03-09T04:00:54.709Z,99.99
2019-03-09T04:01:54.726Z,99.99
2019-03-09T04:02:54.741Z,99.99
2019-03-09T04:03:54.754Z,99.99
2019-03-09T04:04:54.850Z,99.99
2019-03-09T04:05:54.783Z,99.99
2019-03-09T04:06:54.801Z,99.99
2019-03-09T04:07:54.820Z,99.99
2019-03-09T04:08:54.832Z,99.99
2019-03-09T04:09:55.002Z,99.99
2019-03-09T04:11:09.540Z,99.99
2019-03-09T04:11:54.887Z,99.99
2019-03-09T04:13:54.910Z,99.99
2019-03-09T04:14:54.927Z,99.99
2019-03-09T04:15:54.943Z,99.99
2019-03-09T04:16:55.063Z,99.99
2019-03-09T04:17:54.981Z,99.99
2019-03-09T04:18:54.990Z,99.99
2019-03-09T04:19:55.007Z,99.99
2019-03-09T04:20:55.026Z,99.99
2019-03-09T04:21:55.036Z,99.99
2019-03-09T04:22:55.152Z,99.99
2019-03-09T04:23:55.069Z,99.99
2019-03-09T04:24:55.086Z,99.99
2019-03-09T04:25:55.097Z,99.99
2019-03-09T04:27:09.776Z,99.99
2019-03-09T04:27:55.140Z,99.99
2019-03-09T04:28:55.156Z,99.99
2019-03-09T04:29:55.175Z,99.99
2019-03-09T04:30:55.182Z,99.99
2019-03-09T04:31:55.191Z,99.99
2019-03-09T04:32:55.206Z,99.99
2019-03-09T04:33:55.223Z,99.99
2019-03-09T04:34:55.241Z,99.99
2019-03-09T04:35:55.258Z,99.99
2019-03-09T04:36:55.270Z,99.99
2019-03-09T04:37:55.291Z,99.99
2019-03-09T04:38:55.311Z,99.99
2019-03-09T04:39:55.333Z,99.99
2019-03-09T04:40:55.356Z,99.99
2019-03-09T04:42:10.012Z,99.99
2019-03-09T04:42:55.364Z,99.99
2019-03-09T04:43:55.379Z,99.99
2019-03-09T04:44:55.396Z,99.99
2019-03-09T04:45:55.411Z,99.99
2019-03-09T04:46:55.427Z,99.99
2019-03-09T04:48:55.457Z,99.99
2019-03-09T04:49:55.477Z,99.99
2019-03-09T04:50:55.492Z,99.99
2019-03-09T04:51:55.507Z,99.99
2019-03-09T04:52:55.526Z,99.99
2019-03-09T04:53:55.540Z,99.99
2019-03-09T04:54:55.654Z,99.99
2019-03-09T04:55:55.567Z,99.99
2019-03-09T04:56:55.591Z,99.99
2019-03-09T04:57:55.600Z,99.99
2019-03-09T04:58:55.614Z,99.99
2019-03-09T04:59:55.637Z,99.99
2019-03-09T05:00:55.647Z,99.99
2019-03-09T05:01:55.662Z,99.99
2019-03-09T05:03:55.695Z,99.99
2019-03-09T05:04:55.716Z,99.99
2019-03-09T05:05:55.727Z,99.99
2019-03-09T05:06:55.491Z,99.99
2019-03-09T05:07:55.760Z,99.99
2019-03-09T05:08:55.773Z,99.99
2019-03-09T05:09:55.816Z,99.99
2019-03-09T05:11:55.820Z,99.99
2019-03-09T05:12:57.641Z,99.99
2019-03-09T05:14:10.517Z,99.99
2019-03-09T05:14:55.868Z,99.99
2019-03-09T05:15:55.883Z,99.99
2019-03-09T05:16:55.901Z,99.99
2019-03-09T05:17:55.923Z,99.99
2019-03-09T05:18:55.930Z,99.99
2019-03-09T05:19:55.952Z,99.99
2019-03-09T05:20:55.970Z,99.99
2019-03-09T05:21:55.980Z,99.99
2019-03-09T05:22:55.997Z,99.99
2019-03-09T05:23:56.019Z,99.99
2019-03-09T05:24:56.026Z,99.99
2019-03-09T05:26:56.056Z,99.99
2019-03-09T05:27:56.076Z,99.99
2019-03-09T05:28:56.087Z,99.99
2019-03-09T05:30:10.768Z,99.99
2019-03-09T05:30:56.120Z,99.99
2019-03-09T05:31:56.136Z,99.99
2019-03-09T05:32:56.256Z,99.99
2019-03-09T05:33:56.168Z,99.99
2019-03-09T05:34:56.187Z,99.99
2019-03-09T05:35:56.210Z,99.99
2019-03-09T05:36:56.216Z,99.99
2019-03-09T05:37:56.230Z,99.99
2019-03-09T05:38:56.245Z,99.99
2019-03-09T05:39:56.267Z,99.99
2019-03-09T05:40:56.289Z,99.99
2019-03-09T05:41:56.294Z,99.99
2019-03-09T05:42:56.311Z,99.99
2019-03-09T05:43:56.330Z,99.99
2019-03-09T05:44:56.349Z,99.99
2019-03-09T05:46:11.020Z,99.99
2019-03-09T05:46:56.385Z,99.99
2019-03-09T05:47:56.402Z,99.99
2019-03-09T05:48:56.405Z,99.99
2019-03-09T05:49:56.423Z,99.99
2019-03-09T05:50:56.435Z,99.99
2019-03-09T05:51:56.453Z,99.99
2019-03-09T05:52:56.486Z,99.99
2019-03-09T05:53:56.493Z,99.99
2019-03-09T05:54:56.505Z,99.99
2019-03-09T05:55:56.515Z,99.99
2019-03-09T05:56:56.529Z,99.99
2019-03-09T05:57:56.545Z,99.99
2019-03-09T05:58:56.589Z,99.99
2019-03-09T05:59:56.578Z,99.99
2019-03-09T06:00:56.592Z,99.99
2019-03-09T06:02:11.272Z,99.99
2019-03-09T06:02:56.643Z,99.99
2019-03-09T06:03:56.639Z,99.99
2019-03-09T06:04:56.655Z,99.99
2019-03-09T06:05:56.674Z,99.99
2019-03-09T06:06:56.687Z,99.99
2019-03-09T06:07:56.702Z,99.99
2019-03-09T06:08:56.719Z,99.99
2019-03-09T06:09:56.735Z,99.99
2019-03-09T06:10:56.754Z,99.99
2019-03-09T06:11:56.766Z,99.99
2019-03-09T06:12:56.782Z,99.99
2019-03-09T06:13:56.801Z,99.99
2019-03-09T06:14:56.814Z,99.99
2019-03-09T06:17:11.509Z,99.99
2019-03-09T06:17:56.867Z,99.99
2019-03-09T06:18:56.878Z,99.99
2019-03-09T06:19:56.910Z,99.99
2019-03-09T06:20:56.912Z,99.99
2019-03-09T06:21:56.924Z,99.99
2019-03-09T06:22:56.940Z,99.99
2019-03-09T06:23:56.956Z,99.99
2019-03-09T06:24:56.727Z,99.99
2019-03-09T06:25:56.990Z,99.99
2019-03-09T06:26:57.001Z,99.99
2019-03-09T06:28:57.033Z,99.99
2019-03-09T06:29:57.049Z,99.99
2019-03-09T06:30:57.063Z,99.99
2019-03-09T06:31:57.079Z,99.99
2019-03-09T06:32:57.097Z,99.99
2019-03-09T06:33:57.111Z,99.99
2019-03-09T06:34:57.125Z,99.99
2019-03-09T06:35:57.142Z,99.99
2019-03-09T06:36:56.911Z,99.99
2019-03-09T06:37:58.280Z,99.99
2019-03-09T06:38:57.190Z,99.99
2019-03-09T06:39:57.208Z,99.99
2019-03-09T06:41:05.320Z,99.99
2019-03-09T06:41:57.237Z,99.99
2019-03-09T06:42:57.251Z,99.99
2019-03-09T06:43:57.287Z,99.99
2019-03-09T06:44:57.285Z,99.99
2019-03-09T06:45:57.297Z,99.99
2019-03-09T06:46:57.317Z,99.99
2019-03-09T06:47:57.330Z,99.99
2019-03-09T06:49:12.008Z,99.99
2019-03-09T06:49:57.358Z,99.99
2019-03-09T06:50:57.375Z,99.99
2019-03-09T06:51:57.395Z,99.99
2019-03-09T06:52:57.407Z,99.99
2019-03-09T06:53:57.425Z,99.99
2019-03-09T06:54:57.438Z,99.99
2019-03-09T06:56:57.468Z,99.99
2019-03-09T06:57:57.485Z,99.99
2019-03-09T06:58:57.509Z,99.99
2019-03-09T06:59:57.514Z,99.99
2019-03-09T07:01:57.549Z,99.99
2019-03-09T07:02:57.561Z,99.99
2019-03-09T07:03:57.576Z,99.99
2019-03-09T07:05:12.256Z,99.99
2019-03-09T07:05:57.609Z,99.99
2019-03-09T07:06:57.625Z,99.99
2019-03-09T07:07:57.639Z,99.99
2019-03-09T07:08:57.656Z,99.99
2019-03-09T07:09:57.692Z,99.99
2019-03-09T07:10:57.709Z,99.99
2019-03-09T07:11:57.701Z,99.99
2019-03-09T07:12:57.717Z,99.99
2019-03-09T07:13:57.739Z,99.99
2019-03-09T07:14:57.749Z,99.99
2019-03-09T07:15:57.763Z,99.99
2019-03-09T07:16:57.783Z,99.99
2019-03-09T07:18:57.811Z,99.99
2019-03-09T07:19:57.862Z,99.99
2019-03-09T07:21:12.507Z,99.99
2019-03-09T07:21:57.861Z,99.99
2019-03-09T07:22:57.878Z,99.99
2019-03-09T07:23:57.888Z,99.99
2019-03-09T07:24:57.921Z,99.99
2019-03-09T07:25:57.919Z,99.99
2019-03-09T07:26:57.936Z,99.99
2019-03-09T07:27:57.962Z,99.99
2019-03-09T07:28:57.963Z,99.99
2019-03-09T07:29:57.983Z,99.99
2019-03-09T07:30:57.996Z,99.99
2019-03-09T07:33:58.066Z,99.99
2019-03-09T07:34:58.062Z,99.99
2019-03-09T07:35:58.074Z,99.99
2019-03-09T07:37:12.754Z,99.99
2019-03-09T07:37:58.106Z,99.99
2019-03-09T07:38:58.122Z,99.99
2019-03-09T07:39:58.136Z,99.99
2019-03-09T07:40:58.153Z,99.99
2019-03-09T07:41:58.174Z,99.99
2019-03-09T07:42:58.188Z,99.99
2019-03-09T07:43:58.200Z,99.99
2019-03-09T07:44:58.216Z,99.99
2019-03-09T07:45:58.234Z,99.99
2019-03-09T07:46:58.247Z,99.99
2019-03-09T07:47:58.262Z,99.99
2019-03-09T07:48:58.282Z,99.99
2019-03-09T07:50:58.314Z,99.99
2019-03-09T07:52:12.991Z,99.99
2019-03-09T07:52:58.343Z,99.99
2019-03-09T07:53:58.358Z,99.99
2019-03-09T07:54:58.377Z,99.99
2019-03-09T07:55:58.392Z,99.99
2019-03-09T07:56:58.406Z,99.99
2019-03-09T07:57:58.428Z,99.99
2019-03-09T07:58:58.438Z,99.99
2019-03-09T07:59:58.455Z,99.99
2019-03-09T08:00:58.472Z,99.99
2019-03-09T08:01:58.485Z,99.99
2019-03-09T08:02:58.501Z,99.99
2019-03-09T08:04:58.534Z,99.99
2019-03-09T08:05:58.549Z,99.99
2019-03-09T08:06:58.565Z,99.99
2019-03-09T08:07:58.582Z,99.99
2019-03-09T08:08:58.596Z,99.99
2019-03-09T08:09:58.613Z,99.99
2019-03-09T08:10:58.627Z,99.99
2019-03-09T08:11:58.644Z,99.99
2019-03-09T08:12:58.675Z,99.99
2019-03-09T08:13:58.677Z,99.99
2019-03-09T08:14:58.700Z,99.99
2019-03-09T08:15:58.712Z,99.99
2019-03-09T08:16:58.727Z,99.99
2019-03-09T08:17:58.743Z,99.99
2019-03-09T08:18:58.762Z,99.99
2019-03-09T08:19:58.781Z,99.99
2019-03-09T08:21:58.805Z,99.99
2019-03-09T08:24:13.501Z,99.99
2019-03-09T08:24:58.870Z,99.99
2019-03-09T08:25:58.893Z,99.99
2019-03-09T08:26:58.890Z,99.99
2019-03-09T08:27:58.904Z,99.99
2019-03-09T08:28:58.932Z,99.99
2019-03-09T08:29:58.994Z,99.99
2019-03-09T08:30:58.961Z,99.99
2019-03-09T08:31:58.980Z,99.99
2019-03-09T08:32:58.981Z,99.99
2019-03-09T08:35:59.058Z,99.99
2019-03-09T08:36:59.058Z,99.99
2019-03-09T08:37:59.099Z,99.99
2019-03-09T08:38:59.096Z,99.99
2019-03-09T08:40:13.762Z,99.99
2019-03-09T08:40:58.866Z,99.99
2019-03-09T08:42:59.148Z,99.99
2019-03-09T08:43:59.166Z,99.99
2019-03-09T08:44:59.244Z,99.99
2019-03-09T08:45:58.966Z,99.99
2019-03-09T08:46:59.249Z,99.99
2019-03-09T08:47:59.243Z,99.99
2019-03-09T08:49:00.041Z,99.99
2019-03-09T08:49:59.284Z,99.99
2019-03-09T08:50:59.040Z,99.99
2019-03-09T08:51:59.300Z,99.99
2019-03-09T08:52:59.346Z,99.99
2019-03-09T08:53:59.361Z,99.99
2019-03-09T08:54:59.456Z,99.99
2019-03-09T08:56:14.029Z,99.99
2019-03-09T08:56:59.134Z,99.99
2019-03-09T08:57:59.401Z,99.99
2019-03-09T08:58:59.465Z,99.99
2019-03-09T08:59:59.433Z,99.99
2019-03-09T09:00:59.473Z,99.99
2019-03-09T09:01:59.478Z,99.99
2019-03-09T09:02:59.485Z,99.99
2019-03-09T09:03:59.501Z,99.99
2019-03-09T09:04:59.518Z,99.99
2019-03-09T09:05:59.534Z,99.99
2019-03-09T09:06:59.557Z,99.99
2019-03-09T09:07:59.579Z,99.99
2019-03-09T09:08:59.588Z,99.99
2019-03-09T09:09:59.607Z,99.99
2019-03-09T09:10:59.619Z,99.99
2019-03-09T09:12:14.301Z,99.99
2019-03-09T09:12:59.657Z,99.99
2019-03-09T09:13:59.679Z,99.99
2019-03-09T09:14:59.740Z,99.99
2019-03-09T09:15:59.708Z,99.99
2019-03-09T09:16:59.728Z,99.99
2019-03-09T09:17:59.750Z,99.99
2019-03-09T09:18:59.777Z,99.99
2019-03-09T09:19:59.838Z,99.99
2019-03-09T09:20:59.802Z,99.99
2019-03-09T09:21:59.822Z,99.99
2019-03-09T09:22:59.841Z,99.99
2019-03-09T09:23:59.861Z,99.99
2019-03-09T09:24:59.880Z,99.99
2019-03-09T09:25:59.897Z,99.99
2019-03-09T09:27:14.584Z,99.99
2019-03-09T09:27:59.941Z,99.69
2019-03-09T09:28:59.957Z,98.74
2019-03-09T09:29:59.976Z,97.13
2019-03-09T09:30:59.997Z,97.51
2019-03-09T09:32:00.022Z,96.36
2019-03-09T09:33:00.035Z,95.17
2019-03-09T09:34:01.021Z,94.89
2019-03-09T09:35:00.123Z,94.51
2019-03-09T09:36:00.098Z,94.6
2019-03-09T09:37:00.117Z,93.84
2019-03-09T09:38:00.141Z,93.65
2019-03-09T09:39:00.160Z,92.98
2019-03-09T09:40:59.956Z,91.36
2019-03-09T09:42:02.130Z,91.36
2019-03-09T09:43:00.245Z,91.36
2019-03-09T09:44:00.285Z,91.46
2019-03-09T09:45:00.396Z,90.31
2019-03-09T09:46:00.299Z,89.94
2019-03-09T09:47:00.320Z,89.94
2019-03-09T09:48:00.345Z,88.12
2019-03-09T09:49:00.369Z,87.55
2019-03-09T09:50:00.382Z,86.74
2019-03-09T09:51:00.399Z,86.93
2019-03-09T09:52:00.427Z,86.65
2019-03-09T09:53:00.440Z,85.84
2019-03-09T09:54:00.468Z,86.41
2019-03-09T09:55:00.544Z,85.97
2019-03-09T09:56:00.552Z,85.31
2019-03-09T09:57:00.522Z,84.55
2019-03-09T09:58:00.295Z,83.64
2019-03-09T09:59:15.226Z,83.31
2019-03-09T10:00:00.586Z,84.07
2019-03-09T10:01:00.603Z,83.12
2019-03-09T10:02:00.622Z,83.31
2019-03-09T10:03:00.641Z,82.4
2019-03-09T10:04:00.670Z,82.49
2019-03-09T10:05:00.696Z,81.25
2019-03-09T10:06:00.707Z,80.87
2019-03-09T10:07:00.730Z,79.77
2019-03-09T10:08:00.749Z,80.05
2019-03-09T10:09:00.769Z,79.28
2019-03-09T10:10:00.788Z,78.05
2019-03-09T10:11:00.808Z,78.37
2019-03-09T10:12:00.832Z,79.04
2019-03-09T10:13:00.855Z,78.31
2019-03-09T10:14:00.871Z,76.03
2019-03-09T10:15:15.558Z,73.92
2019-03-09T10:16:00.917Z,74.78
2019-03-09T10:17:00.935Z,74.49
2019-03-09T10:18:00.956Z,74.93
2019-03-09T10:19:00.986Z,74.08
2019-03-09T10:20:01.005Z,74.08
2019-03-09T10:21:01.022Z,74.8
2019-03-09T10:22:01.043Z,74.71
2019-03-09T10:23:06.860Z,75.37
2019-03-09T10:24:01.084Z,75.24
2019-03-09T10:25:01.108Z,75.24
2019-03-09T10:26:01.131Z,74.67
2019-03-09T10:28:00.924Z,75.05
2019-03-09T10:29:01.203Z,75.24
2019-03-09T10:30:01.228Z,75.24
2019-03-09T10:31:15.897Z,74.96
2019-03-09T10:32:01.252Z,74.57
2019-03-09T10:33:01.273Z,75.05
2019-03-09T10:34:01.295Z,75.15
2019-03-09T10:35:01.319Z,76.1
2019-03-09T10:36:01.341Z,75.24
2019-03-09T10:37:01.389Z,74.77
2019-03-09T10:38:01.403Z,75.53
2019-03-09T10:39:01.394Z,74.77
2019-03-09T10:40:01.416Z,74.77
2019-03-09T10:41:01.437Z,74.67
2019-03-09T10:42:01.455Z,74.77
2019-03-09T10:43:01.474Z,74.77
2019-03-09T10:45:01.516Z,74.29
2019-03-09T10:46:01.538Z,74.06
2019-03-09T10:47:16.218Z,74.63
2019-03-09T10:48:01.577Z,74.54
2019-03-09T10:49:01.625Z,74.92
2019-03-09T10:50:01.624Z,74.82
2019-03-09T10:51:01.632Z,75.11
2019-03-09T10:52:01.654Z,75.59
2019-03-09T10:53:01.673Z,76.64
2019-03-09T10:54:01.703Z,77.11
2019-03-09T10:55:01.725Z,76.54
2019-03-09T10:56:01.736Z,75.53
2019-03-09T10:57:01.754Z,74.96
2019-03-09T10:58:01.771Z,74.96
2019-03-09T10:59:01.789Z,74.29
2019-03-09T11:00:01.811Z,74.19
2019-03-09T11:01:01.829Z,74.96
2019-03-09T11:02:16.523Z,73.52
2019-03-09T11:03:01.870Z,74.01
2019-03-09T11:04:01.886Z,74.1
2019-03-09T11:05:01.910Z,74.19
2019-03-09T11:06:01.927Z,74.01
2019-03-09T11:07:01.947Z,73.33
2019-03-09T11:08:01.965Z,73.52
2019-03-09T11:09:01.983Z,73.43
2019-03-09T11:10:02.008Z,73.81
2019-03-09T11:11:02.024Z,73.62
2019-03-09T11:12:02.044Z,74.19
2019-03-09T11:13:02.062Z,74.01
2019-03-09T11:15:02.100Z,73.91
2019-03-09T11:16:02.172Z,73.24
2019-03-09T11:17:02.141Z,73.43
2019-03-09T11:18:02.165Z,73.43
2019-03-09T11:19:02.228Z,73.05
2019-03-09T11:20:02.202Z,72.48
2019-03-09T11:21:02.218Z,73.33
2019-03-09T11:22:02.237Z,73.08
2019-03-09T11:23:02.263Z,72.99
2019-03-09T11:24:02.282Z,73.94
2019-03-09T11:25:06.339Z,72.89
2019-03-09T11:26:02.316Z,73.37
2019-03-09T11:27:02.335Z,73.28
2019-03-09T11:28:02.356Z,73.43
2019-03-09T11:29:02.379Z,74.1
2019-03-09T11:30:02.394Z,74.29
2019-03-09T11:32:02.433Z,74.67
2019-03-09T11:33:02.554Z,74.67
2019-03-09T11:34:17.136Z,76.48
2019-03-09T11:35:02.739Z,77.25
2019-03-09T11:36:02.510Z,77.25
2019-03-09T11:37:02.530Z,77.53
2019-03-09T11:38:02.567Z,77.62
2019-03-09T11:39:02.572Z,77.25
2019-03-09T11:40:02.794Z,77.44
2019-03-09T11:41:03.358Z,76.23
2019-03-09T11:42:02.639Z,75.95
2019-03-09T11:43:02.651Z,74.52
2019-03-09T11:44:02.668Z,73.94
2019-03-09T11:45:02.781Z,73.28
2019-03-09T11:46:02.708Z,73.56
2019-03-09T11:48:02.760Z,74.13
2019-03-09T11:49:02.765Z,73.75
2019-03-09T11:50:17.449Z,73.56
2019-03-09T11:51:02.805Z,73.72
2019-03-09T11:52:02.830Z,75.18
2019-03-09T11:53:02.866Z,74.32
2019-03-09T11:54:02.863Z,73.94
2019-03-09T11:55:02.882Z,73.85
2019-03-09T11:56:02.913Z,73.85
2019-03-09T11:57:02.922Z,73.18
2019-03-09T11:58:02.945Z,73.28
2019-03-09T11:59:02.965Z,72.99
2019-03-09T12:00:03.013Z,72.13
2019-03-09T12:01:03.010Z,72.42
2019-03-09T12:04:03.080Z,72.03
2019-03-09T12:05:03.079Z,72.07
2019-03-09T12:06:17.763Z,71.78
2019-03-09T12:07:03.121Z,71.5
2019-03-09T12:08:03.143Z,71.27
2019-03-09T12:09:03.159Z,70.79
2019-03-09T12:10:03.177Z,70.7
2019-03-09T12:11:03.213Z,70.89
2019-03-09T12:12:03.251Z,71.08
2019-03-09T12:13:03.237Z,70.13
2019-03-09T12:14:03.261Z,70.61
2019-03-09T12:15:03.281Z,70.54
2019-03-09T12:16:03.298Z,70.22
2019-03-09T12:17:03.329Z,70.51
2019-03-09T12:19:03.355Z,70.32
2019-03-09T12:20:03.376Z,70.22
2019-03-09T12:21:03.403Z,70.13
2019-03-09T12:22:18.078Z,70.22
2019-03-09T12:23:04.140Z,70.22
2019-03-09T12:24:03.459Z,69.93
2019-03-09T12:25:03.490Z,70.42
2019-03-09T12:26:03.493Z,70.42
2019-03-09T12:27:03.512Z,70.7
2019-03-09T12:28:03.536Z,70.79
2019-03-09T12:29:03.551Z,70.22
2019-03-09T12:30:06.396Z,71.08
2019-03-09T12:31:03.595Z,70.7
2019-03-09T12:32:03.620Z,71.08
2019-03-09T12:33:03.633Z,70.61
2019-03-09T12:34:03.666Z,70.7
2019-03-09T12:35:03.671Z,70.42
2019-03-09T12:36:03.693Z,70.7
2019-03-09T12:37:18.373Z,69.46
2019-03-09T12:38:03.728Z,68.79
2019-03-09T12:39:03.753Z,68.7
2019-03-09T12:40:03.796Z,68.03
2019-03-09T12:41:03.787Z,68.6
2019-03-09T12:42:03.860Z,67.93
2019-03-09T12:43:03.827Z,67.36
2019-03-09T12:44:03.912Z,66.78
2019-03-09T12:45:03.882Z,66.31
2019-03-09T12:46:03.885Z,66.78
2019-03-09T12:47:03.905Z,66.63
2019-03-09T12:49:03.985Z,65.87
2019-03-09T12:51:03.984Z,66.25
2019-03-09T12:52:04.011Z,66.44
2019-03-09T12:53:04.027Z,67.11
2019-03-09T12:54:04.046Z,65.87
2019-03-09T12:55:04.063Z,65.3
2019-03-09T12:56:04.088Z,65.48
2019-03-09T12:57:04.105Z,65.48
2019-03-09T12:58:04.123Z,65.33
2019-03-09T12:59:04.144Z,65.14
2019-03-09T13:00:04.174Z,66.19
2019-03-09T13:01:04.186Z,66.09
2019-03-09T13:02:04.207Z,66.15
2019-03-09T13:04:04.260Z,66.53
2019-03-09T13:05:04.369Z,67.4
2019-03-09T13:06:04.282Z,66.92
2019-03-09T13:07:04.303Z,67.49
2019-03-09T13:08:04.321Z,67.21
2019-03-09T13:09:19.005Z,67.21
2019-03-09T13:10:04.363Z,67.3
2019-03-09T13:11:04.383Z,67.68
2019-03-09T13:12:04.402Z,67.93
2019-03-09T13:13:04.421Z,67.87
2019-03-09T13:14:04.441Z,67.4
2019-03-09T13:15:07.156Z,67.58
2019-03-09T13:16:04.483Z,67.3
2019-03-09T13:17:04.259Z,66.35
2019-03-09T13:19:04.540Z,65.87
2019-03-09T13:20:04.567Z,64.91
2019-03-09T13:22:04.601Z,65.2
2019-03-09T13:23:04.619Z,65.3
2019-03-09T13:24:04.639Z,65.2
2019-03-09T13:25:19.323Z,65.2
2019-03-09T13:26:04.683Z,65.2
2019-03-09T13:27:04.698Z,65.39
2019-03-09T13:28:04.779Z,65.39
2019-03-09T13:29:04.738Z,64.91
2019-03-09T13:30:04.765Z,66.72
2019-03-09T13:31:04.777Z,66.82
2019-03-09T13:32:04.798Z,65.77
2019-03-09T13:33:04.821Z,66.15
2019-03-09T13:34:04.840Z,66.15
2019-03-09T13:35:04.857Z,66.63